Time;durP1;ratioP1;P1;durP2;ratioP2;P2;SDS_P1;SDS_P2;PMS_P1;PMS_P2;Temp;Humidity;BMP_temperature;BMP_pressure;BME280_temperature;BME280_humidity;BME280_pressure;Samples;Min_cycle;Max_cycle;Signal;HPM_P1;HPM_P2
2021/03/23 00:01:08;;;;;;;2.83;1.63;;;;;;;0.79;57.34;99131.90;1727522;82;21209;-62
2021/03/23 00:03:39;;;;;;;4.63;2.53;;;;;;;0.75;57.03;99121.41;1722886;82;21619;-66
2021/03/23 00:06:08;;;;;;;4.33;1.90;;;;;;;0.72;57.26;99136.34;1736192;82;21157;-64
2021/03/23 00:08:40;;;;;;;3.20;1.70;;;;;;;0.68;57.27;99130.33;1743393;82;21374;-66
2021/03/23 00:11:15;;;;;;;4.10;1.87;;;;;;;0.64;57.48;99133.89;1721540;82;21181;-63
2021/03/23 00:13:45;;;;;;;3.83;1.80;;;;;;;0.61;57.56;99134.30;1723332;82;21075;-64
2021/03/23 00:16:14;;;;;;;4.47;1.60;;;;;;;0.56;57.71;99135.41;1701982;84;21153;-65
2021/03/23 00:18:45;;;;;;;1.80;1.63;;;;;;;0.53;57.81;99131.81;1722129;82;21595;-65
2021/03/23 00:21:13;;;;;;;3.73;1.40;;;;;;;0.48;57.95;99132.92;1708199;82;21340;-63
2021/03/23 00:23:41;;;;;;;3.60;1.50;;;;;;;0.47;58.14;99137.10;1713150;82;21144;-63
2021/03/23 00:26:09;;;;;;;3.87;1.87;;;;;;;0.42;58.27;99131.91;1748008;82;21066;-64
2021/03/23 00:28:38;;;;;;;2.80;1.70;;;;;;;0.39;58.38;99135.43;1747463;81;21003;-62
2021/03/23 00:31:07;;;;;;;3.73;1.90;;;;;;;0.37;58.37;99128.22;1747658;82;21134;-63
2021/03/23 00:33:36;;;;;;;7.67;2.60;;;;;;;0.32;58.56;99130.64;1735919;82;21654;-64
2021/03/23 00:36:05;;;;;;;2.73;1.90;;;;;;;0.26;58.66;99134.06;1711627;82;21141;-64
2021/03/23 00:38:34;;;;;;;2.27;2.07;;;;;;;0.20;58.81;99133.52;1721137;82;21221;-62
2021/03/23 00:41:01;;;;;;;3.03;1.67;;;;;;;0.17;58.95;99131.28;1703228;82;21151;-63
2021/03/23 00:43:29;;;;;;;2.37;1.50;;;;;;;0.14;59.14;99130.37;1750175;81;21189;-62
2021/03/23 00:45:57;;;;;;;3.77;2.00;;;;;;;0.12;59.21;99130.55;1718991;83;22484;-62
2021/03/23 00:48:24;;;;;;;2.50;2.17;;;;;;;0.11;59.32;99134.20;1745132;82;21168;-64
2021/03/23 00:50:52;;;;;;;4.50;1.73;;;;;;;0.07;59.37;99134.29;1709094;82;21050;-60
2021/03/23 00:53:20;;;;;;;3.07;1.60;;;;;;;0.02;59.50;99133.23;1707099;82;21204;-63
2021/03/23 00:55:48;;;;;;;4.03;2.30;;;;;;;-0.05;59.46;99139.30;1717507;83;21178;-63
2021/03/23 00:58:16;;;;;;;3.03;1.43;;;;;;;-0.07;59.64;99135.23;1722491;82;21381;-63
2021/03/23 01:00:44;;;;;;;2.87;1.37;;;;;;;-0.13;59.78;99134.18;1742217;82;21185;-63
2021/03/23 01:03:12;;;;;;;3.73;1.87;;;;;;;-0.18;59.95;99139.23;1730822;82;21577;-62
2021/03/23 01:05:42;;;;;;;2.13;1.40;;;;;;;-0.21;60.12;99135.67;1722522;82;20981;-62
2021/03/23 01:08:09;;;;;;;3.17;1.97;;;;;;;-0.24;60.30;99132.61;1719183;83;21638;-64
2021/03/23 01:10:37;;;;;;;2.57;1.73;;;;;;;-0.26;60.40;99128.83;1719032;83;21209;-61
2021/03/23 01:13:06;;;;;;;4.30;1.97;;;;;;;-0.28;60.56;99122.91;1719026;82;21138;-63
2021/03/23 01:15:33;;;;;;;6.97;4.07;;;;;;;-0.29;60.65;99124.44;1741310;82;21130;-66
2021/03/23 01:18:01;;;;;;;1.90;1.50;;;;;;;-0.31;60.83;99122.48;1696892;83;21170;-61
2021/03/23 01:20:30;;;;;;;2.27;1.53;;;;;;;-0.33;60.99;99125.31;1680699;85;21213;-61
2021/03/23 01:22:58;;;;;;;2.00;1.57;;;;;;;-0.35;61.17;99122.07;1710864;83;21203;-63
2021/03/23 01:25:26;;;;;;;2.57;1.47;;;;;;;-0.38;61.31;99123.75;1713934;82;21189;-62
2021/03/23 01:27:54;;;;;;;3.63;2.17;;;;;;;-0.41;61.45;99124.66;1688171;83;21230;-62
2021/03/23 01:30:24;;;;;;;5.60;1.77;;;;;;;-0.40;61.58;99136.86;1680676;84;21150;-63
2021/03/23 01:32:52;;;;;;;3.83;1.67;;;;;;;-0.46;61.76;99127.38;1710782;83;21152;-63
2021/03/23 01:35:21;;;;;;;3.73;2.10;;;;;;;-0.54;61.93;99131.49;1733077;82;21507;-62
2021/03/23 01:37:49;;;;;;;4.23;1.77;;;;;;;-0.59;62.22;99131.25;1718674;83;21238;-62
2021/03/23 01:40:18;;;;;;;2.20;1.67;;;;;;;-0.64;62.36;99131.01;1699902;84;21577;-63
2021/03/23 01:42:55;;;;;;;2.57;2.23;;;;;;;-0.67;62.53;99130.05;1689154;83;21229;-65
2021/03/23 01:45:38;;;;;;;3.10;1.83;;;;;;;-0.71;62.71;99131.95;1721112;83;21155;-65
2021/03/23 01:48:26;;;;;;;3.20;2.00;;;;;;;-0.75;62.92;99126.24;1721191;81;21243;-65
2021/03/23 01:50:58;;;;;;;3.80;2.00;;;;;;;-0.78;63.14;99125.31;1720188;83;21162;-64
2021/03/23 01:53:39;;;;;;;5.03;2.10;;;;;;;-0.80;63.35;99125.17;1724369;81;21029;-64
2021/03/23 01:56:08;;;;;;;5.43;2.43;;;;;;;-0.82;63.83;99127.20;1713503;83;21117;-62
2021/03/23 01:58:39;;;;;;;2.30;2.10;;;;;;;-0.86;64.17;99130.70;1739940;81;21116;-63
2021/03/23 02:01:08;;;;;;;3.00;2.17;;;;;;;-0.88;64.36;99126.14;1752927;81;21358;-61
2021/03/23 02:03:36;;;;;;;3.53;1.90;;;;;;;-0.92;64.57;99129.67;1725767;83;21150;-61
2021/03/23 02:06:06;;;;;;;5.27;2.47;;;;;;;-0.94;64.70;99136.95;1755158;81;21168;-60
2021/03/23 02:08:34;;;;;;;6.40;2.83;;;;;;;-0.96;64.80;99133.67;1739402;82;21043;-61
2021/03/23 02:11:02;;;;;;;3.47;2.40;;;;;;;-1.00;64.93;99132.42;1739445;82;21221;-60
2021/03/23 02:13:29;;;;;;;2.67;1.97;;;;;;;-0.99;64.98;99129.28;1747093;82;22399;-61
2021/03/23 02:15:57;;;;;;;3.80;2.47;;;;;;;-1.01;65.05;99137.38;1737941;82;21152;-61
2021/03/23 02:18:26;;;;;;;6.47;2.73;;;;;;;-1.01;65.08;99137.91;1747248;82;21141;-61
2021/03/23 02:21:09;;;;;;;4.93;2.23;;;;;;;-1.02;65.11;99133.13;1746060;82;21667;-60
2021/03/23 02:23:39;;;;;;;3.27;1.75;;;;;;;-1.01;65.17;99140.55;1733389;82;21546;-60
2021/03/23 02:26:13;;;;;;;3.27;2.00;;;;;;;-1.00;65.30;99140.84;1754401;81;21435;-64
2021/03/23 02:28:55;;;;;;;6.70;2.73;;;;;;;-1.02;65.37;99141.05;1722952;83;21655;-59
2021/03/23 02:31:27;;;;;;;2.70;2.50;;;;;;;-1.03;65.52;99143.36;1754238;81;21015;-61
2021/03/23 02:33:57;;;;;;;2.80;2.20;;;;;;;-1.04;65.68;99138.27;1706822;83;21185;-60
2021/03/23 02:36:26;;;;;;;2.90;2.10;;;;;;;-1.07;65.84;99138.66;1743683;81;21184;-61
2021/03/23 02:38:55;;;;;;;2.50;2.30;;;;;;;-1.11;65.98;99140.04;1720179;83;21377;-61
2021/03/23 02:41:23;;;;;;;4.80;3.40;;;;;;;-1.14;66.11;99141.22;1735144;82;21647;-59
2021/03/23 02:44:25;;;;;;;3.37;2.33;;;;;;;-1.17;66.33;99142.92;1730167;82;21597;-61
2021/03/23 02:46:54;;;;;;;5.85;2.80;;;;;;;-1.20;66.46;99136.69;1690194;84;21152;-60
2021/03/23 02:49:22;;;;;;;3.20;2.43;;;;;;;-1.22;66.60;99143.17;1706661;84;21150;-60
2021/03/23 02:51:51;;;;;;;4.70;2.67;;;;;;;-1.24;66.78;99142.52;1706726;84;21344;-59
2021/03/23 02:54:21;;;;;;;3.23;2.83;;;;;;;-1.26;66.89;99137.46;1706544;83;21222;-61
2021/03/23 02:56:49;;;;;;;3.87;2.07;;;;;;;-1.29;66.93;99139.66;1736417;82;21173;-61
2021/03/23 02:59:16;;;;;;;3.07;1.93;;;;;;;-1.29;66.94;99136.50;1708274;82;21180;-61
2021/03/23 03:01:45;;;;;;;5.50;2.00;;;;;;;-1.27;66.95;99138.45;1708120;82;21159;-60
2021/03/23 03:04:13;;;;;;;3.50;3.00;;;;;;;-1.26;66.88;99143.23;1708121;84;21165;-60
2021/03/23 03:06:41;;;;;;;3.60;2.33;;;;;;;-1.26;66.83;99139.28;1708338;84;21226;-61
2021/03/23 03:09:08;;;;;;;4.60;1.97;;;;;;;-1.28;66.78;99137.31;1715253;82;21065;-61
2021/03/23 03:11:36;;;;;;;3.33;2.17;;;;;;;-1.27;66.73;99142.91;1730821;82;20994;-60
2021/03/23 03:14:03;;;;;;;6.53;2.10;;;;;;;-1.29;66.72;99147.05;1730145;82;21140;-61
2021/03/23 03:16:30;;;;;;;3.23;2.00;;;;;;;-1.28;66.68;99146.55;1749461;82;21203;-61
2021/03/23 03:18:59;;;;;;;4.90;2.60;;;;;;;-1.30;66.68;99144.12;1751166;81;21130;-60
2021/03/23 03:21:26;;;;;;;4.60;2.00;;;;;;;-1.32;66.75;99149.57;1651236;84;21178;-58
2021/03/23 03:23:55;;;;;;;4.10;2.70;;;;;;;-1.32;66.82;99150.07;1708937;84;21578;-61
2021/03/23 03:26:23;;;;;;;1.93;1.63;;;;;;;-1.33;66.86;99141.34;1708908;84;21155;-60
2021/03/23 03:28:52;;;;;;;3.33;2.07;;;;;;;-1.33;66.88;99144.47;1720012;81;21236;-58
2021/03/23 03:31:23;;;;;;;3.53;2.27;;;;;;;-1.34;66.88;99140.20;1754735;81;21191;-60
2021/03/23 03:33:53;;;;;;;4.70;2.33;;;;;;;-1.38;66.97;99145.03;1753984;81;21117;-62
2021/03/23 03:36:24;;;;;;;2.20;1.90;;;;;;;-1.37;66.98;99143.22;1693855;84;21171;-61
2021/03/23 03:38:52;;;;;;;3.53;2.73;;;;;;;-1.39;67.07;99143.92;1720249;82;21168;-61
2021/03/23 03:41:20;;;;;;;3.00;2.30;;;;;;;-1.41;67.10;99141.47;1730701;82;21389;-61
2021/03/23 03:43:47;;;;;;;2.80;1.70;;;;;;;-1.40;67.18;99146.23;1727500;82;21202;-61
2021/03/23 03:46:15;;;;;;;5.23;2.30;;;;;;;-1.41;67.25;99151.19;1756545;81;21589;-60
2021/03/23 03:48:43;;;;;;;4.13;2.53;;;;;;;-1.42;67.29;99149.55;1741035;82;21173;-60
2021/03/23 03:51:10;;;;;;;3.43;2.23;;;;;;;-1.41;67.31;99149.38;1726021;83;21125;-61
2021/03/23 03:53:39;;;;;;;2.77;2.50;;;;;;;-1.46;67.41;99153.56;1724888;83;22909;-62
2021/03/23 03:56:06;;;;;;;3.07;2.33;;;;;;;-1.49;67.48;99146.86;1704450;83;21200;-61
2021/03/23 03:58:34;;;;;;;3.33;2.40;;;;;;;-1.53;67.63;99153.48;1725041;83;21159;-60
2021/03/23 04:01:01;;;;;;;3.17;2.30;;;;;;;-1.53;67.75;99164.03;1736600;82;21150;-60
2021/03/23 04:03:30;;;;;;;6.43;2.50;;;;;;;-1.55;67.84;99161.27;1719792;83;21292;-62
2021/03/23 04:05:59;;;;;;;5.93;2.60;;;;;;;-1.56;67.91;99162.27;1699193;82;21188;-60
2021/03/23 04:08:29;;;;;;;3.87;2.07;;;;;;;-1.59;68.03;99163.47;1724697;82;21500;-60
2021/03/23 04:11:00;;;;;;;4.40;1.80;;;;;;;-1.59;68.15;99161.34;1745005;82;21580;-59
2021/03/23 04:13:28;;;;;;;4.17;1.97;;;;;;;-1.59;68.23;99166.61;1747009;82;21153;-61
2021/03/23 04:15:55;;;;;;;3.70;2.47;;;;;;;-1.59;68.29;99160.02;1717659;83;21156;-61
2021/03/23 04:18:24;;;;;;;2.93;1.80;;;;;;;-1.61;68.37;99171.23;1724744;83;21448;-61
2021/03/23 04:20:54;;;;;;;2.80;2.23;;;;;;;-1.64;68.48;99172.44;1740355;81;21132;-61
2021/03/23 04:23:34;;;;;;;4.20;2.13;;;;;;;-1.66;68.62;99174.42;1747817;82;21134;-60
2021/03/23 04:26:05;;;;;;;2.60;1.90;;;;;;;-1.65;68.67;99175.24;1725095;83;21238;-60
2021/03/23 04:28:32;;;;;;;4.30;2.33;;;;;;;-1.68;68.75;99163.27;1740197;82;21238;-61
2021/03/23 04:31:02;;;;;;;7.10;2.27;;;;;;;-1.67;68.80;99163.55;1714650;83;23240;-62
2021/03/23 04:33:30;;;;;;;2.30;1.87;;;;;;;-1.64;68.79;99171.62;1708191;82;21186;-61
2021/03/23 04:36:04;;;;;;;2.73;2.40;;;;;;;-1.62;68.79;99173.55;1719792;83;20999;-62
2021/03/23 04:38:36;;;;;;;1.93;1.80;;;;;;;-1.62;68.83;99176.19;1717885;82;21143;-62
2021/03/23 04:41:07;;;;;;;3.33;2.00;;;;;;;-1.63;68.89;99177.21;1743415;81;21197;-61
2021/03/23 04:43:39;;;;;;;4.37;2.40;;;;;;;-1.64;68.88;99181.66;1725341;83;21372;-62
2021/03/23 04:46:07;;;;;;;2.73;1.70;;;;;;;-1.62;68.90;99178.32;1717813;82;21125;-62
2021/03/23 04:48:36;;;;;;;3.50;2.67;;;;;;;-1.60;68.87;99177.66;1747344;82;21599;-63
2021/03/23 04:51:08;;;;;;;3.77;2.63;;;;;;;-1.58;68.81;99180.90;1744555;82;21050;-61
2021/03/23 04:53:37;;;;;;;6.57;2.93;;;;;;;-1.56;68.80;99178.91;1745008;81;21205;-62
2021/03/23 04:56:07;;;;;;;5.37;3.53;;;;;;;-1.53;68.78;99185.13;1706225;82;22137;-62
2021/03/23 04:58:35;;;;;;;7.63;2.63;;;;;;;-1.49;68.67;99179.00;1719067;82;21574;-61
2021/03/23 05:01:02;;;;;;;2.83;1.90;;;;;;;-1.47;68.60;99187.03;1747584;82;21173;-63
2021/03/23 05:03:34;;;;;;;3.23;1.90;;;;;;;-1.42;68.48;99187.29;1729452;82;21610;-63
2021/03/23 05:06:07;;;;;;;3.57;2.10;;;;;;;-1.37;68.37;99189.38;1681451;83;21167;-61
2021/03/23 05:08:39;;;;;;;3.53;1.80;;;;;;;-1.34;68.22;99191.13;1756263;81;22312;-62
2021/03/23 05:11:07;;;;;;;3.73;2.73;;;;;;;-1.30;68.08;99182.36;1720456;82;21111;-61
2021/03/23 05:13:37;;;;;;;2.43;1.70;;;;;;;-1.27;67.98;99179.34;1752413;81;20982;-63
2021/03/23 05:16:06;;;;;;;3.13;2.43;;;;;;;-1.20;67.92;99183.38;1755722;81;21659;-61
2021/03/23 05:18:35;;;;;;;2.13;1.93;;;;;;;-1.18;67.69;99180.86;1755834;81;21173;-61
2021/03/23 05:21:04;;;;;;;3.63;1.73;;;;;;;-1.12;67.62;99186.72;1748645;81;21364;-59
2021/03/23 05:23:32;;;;;;;3.33;2.20;;;;;;;-1.06;67.38;99189.93;1743066;81;21144;-61
2021/03/23 05:26:00;;;;;;;3.77;2.20;;;;;;;-1.03;67.22;99180.31;1756119;81;21610;-62
2021/03/23 05:28:27;;;;;;;3.47;2.40;;;;;;;-1.01;67.04;99184.09;1755898;81;21183;-60
2021/03/23 05:30:56;;;;;;;5.20;1.93;;;;;;;-0.99;66.76;99182.06;1756118;81;21534;-62
2021/03/23 05:33:25;;;;;;;2.80;1.77;;;;;;;-0.95;66.71;99182.81;1729633;81;21354;-61
2021/03/23 05:35:55;;;;;;;4.27;2.40;;;;;;;-0.91;66.67;99188.52;1720193;83;21197;-64
2021/03/23 05:38:24;;;;;;;3.50;3.10;;;;;;;-0.89;66.49;99183.39;1720227;83;21582;-61
2021/03/23 05:41:06;;;;;;;7.33;4.47;;;;;;;-0.81;66.31;99192.17;1697654;83;21166;-62
2021/03/23 05:44:19;;;;;;;5.80;3.83;;;;;;;-0.76;65.94;99195.88;1739136;81;21137;-62
2021/03/23 05:46:46;;;;;;;4.43;2.73;;;;;;;-0.70;65.83;99199.09;1741033;82;21409;-61
2021/03/23 05:49:34;;;;;;;6.17;2.83;;;;;;;-0.62;65.34;99196.31;1744735;81;26436;-61
2021/03/23 05:52:29;;;;;;;3.40;2.47;;;;;;;-0.57;65.14;99197.05;1741467;82;21144;-61
2021/03/23 05:55:01;;;;;;;7.45;4.10;;;;;;;-0.49;64.52;99199.58;1721362;82;21037;-62
2021/03/23 05:57:40;;;;;;;6.35;4.40;;;;;;;-0.43;64.15;99198.00;1737200;82;26862;-62
2021/03/23 06:00:29;;;;;;;5.87;2.73;;;;;;;-0.37;63.94;99209.11;1747375;82;21507;-61
2021/03/23 06:03:22;;;;;;;9.67;5.37;;;;;;;-0.39;62.80;99205.86;1717841;83;21217;-60
2021/03/23 06:06:03;;;;;;;5.00;3.17;;;;;;;-0.44;62.69;99198.51;1728526;82;21038;-60
2021/03/23 06:08:34;;;;;;;7.80;4.17;;;;;;;-0.44;62.69;99198.51;1733518;82;21847;-62
2021/03/23 06:11:43;;;;;;;7.13;2.83;;;;;;;-0.46;62.83;99197.87;1702057;84;21197;-63
2021/03/23 06:14:21;;;;;;;4.33;2.50;;;;;;;-0.42;63.18;99208.36;1702000;84;21176;-61
2021/03/23 06:17:15;;;;;;;2.67;2.03;;;;;;;-0.33;63.21;99205.89;1701973;84;21575;-63
2021/03/23 06:20:21;;;;;;;3.13;2.03;;;;;;;-0.28;62.83;99218.52;1735320;82;21153;-63
2021/03/23 06:23:21;;;;;;;3.07;2.53;;;;;;;-0.26;62.64;99219.98;1724615;82;21128;-61
2021/03/23 06:26:19;;;;;;;3.67;2.33;;;;;;;-0.22;62.82;99217.77;1710743;82;21205;-61
2021/03/23 06:29:05;;;;;;;4.33;2.97;;;;;;;-0.18;62.40;99220.33;1703223;82;21787;-60
2021/03/23 06:32:11;;;;;;;4.17;2.37;;;;;;;-0.12;61.92;99219.06;1704781;82;21002;-62
2021/03/23 06:34:39;;;;;;;5.20;2.70;;;;;;;-0.04;61.19;99219.41;1756744;81;21049;-61
2021/03/23 06:37:32;;;;;;;3.07;2.07;;;;;;;0.03;60.52;99211.53;1720848;83;21548;-60
2021/03/23 06:40:00;;;;;;;3.37;2.40;;;;;;;0.09;59.78;99225.30;1720487;83;21606;-62
2021/03/23 06:42:36;;;;;;;7.77;3.07;;;;;;;0.14;59.49;99224.22;1720183;83;21433;-64
2021/03/23 06:45:30;;;;;;;3.17;2.50;;;;;;;0.20;58.88;99231.36;1696238;82;21150;-61
2021/03/23 06:48:24;;;;;;;8.73;3.37;;;;;;;0.17;56.07;99227.78;1680952;85;21156;-62
2021/03/23 06:51:14;;;;;;;5.70;2.40;;;;;;;0.24;56.80;99223.37;1719172;83;21627;-61
2021/03/23 06:53:44;;;;;;;4.80;2.87;;;;;;;0.35;56.94;99242.63;1726374;82;21141;-63
2021/03/23 06:56:26;;;;;;;4.33;2.40;;;;;;;0.42;55.52;99221.02;1731620;82;22306;-65
2021/03/23 06:59:19;;;;;;;7.23;3.10;;;;;;;0.46;55.37;99227.55;1737194;82;21169;-63
2021/03/23 07:01:49;;;;;;;5.33;3.70;;;;;;;0.54;55.21;99219.94;1748953;82;21550;-62
2021/03/23 07:04:40;;;;;;;7.80;3.40;;;;;;;0.60;54.98;99223.95;1748915;82;21165;-63
2021/03/23 07:07:21;;;;;;;4.90;1.83;;;;;;;0.67;53.94;99225.30;1748988;82;21002;-64
2021/03/23 07:10:00;;;;;;;4.83;2.07;;;;;;;0.74;50.68;99223.48;1737560;82;21568;-60
2021/03/23 07:12:40;;;;;;;7.90;2.67;;;;;;;0.80;50.73;99220.88;1725886;82;21592;-63
2021/03/23 07:15:26;;;;;;;19.03;6.73;;;;;;;0.87;51.75;99232.78;1742802;82;21086;-63
2021/03/23 07:18:08;;;;;;;6.47;3.10;;;;;;;0.95;50.88;99219.90;1743384;82;21165;-61
2021/03/23 07:20:41;;;;;;;3.90;2.27;;;;;;;1.02;50.87;99204.33;1704320;82;21630;-61
2021/03/23 07:23:35;;;;;;;3.80;2.20;;;;;;;1.10;50.28;99205.98;1719398;83;21195;-60
2021/03/23 07:26:29;;;;;;;4.57;1.83;;;;;;;1.07;47.06;99229.70;1718975;83;21025;-62
2021/03/23 07:29:13;;;;;;;4.47;2.80;;;;;;;1.09;47.39;99206.50;1722526;82;21119;-64
2021/03/23 07:32:13;;;;;;;4.23;2.27;;;;;;;1.23;48.09;99207.33;1846887;76;22777;-60
2021/03/23 07:35:26;;;;;;;3.17;1.90;;;;;;;1.27;47.22;99208.05;1801965;78;25025;-63
2021/03/23 07:38:25;;;;;;;3.43;2.10;;;;;;;1.28;46.07;99216.81;1785279;79;21219;-66
2021/03/23 07:40:52;;;;;;;15.47;6.30;;;;;;;1.33;45.72;99210.91;1816653;79;21611;-62
2021/03/23 07:43:52;;;;;;;7.17;3.37;;;;;;;1.41;45.04;99216.00;1817078;79;21619;-61
2021/03/23 07:46:39;;;;;;;3.63;2.43;;;;;;;1.49;43.59;99212.64;1817022;79;21097;-61
2021/03/23 07:49:30;;;;;;;6.63;3.10;;;;;;;1.56;43.52;99212.15;1816382;79;21007;-61
2021/03/23 07:52:24;;;;;;;13.83;6.07;;;;;;;1.60;43.12;99217.34;1808044;78;21326;-61
2021/03/23 07:54:51;;;;;;;3.77;2.40;;;;;;;1.69;43.69;99208.16;1745437;81;21017;-61
2021/03/23 07:57:46;;;;;;;2.90;2.00;;;;;;;1.77;43.16;99227.55;1703218;82;21002;-61
2021/03/23 08:00:25;;;;;;;2.40;1.90;;;;;;;1.76;43.15;99217.45;1711643;82;21917;-61
2021/03/23 08:02:58;;;;;;;2.23;1.97;;;;;;;1.66;43.04;99207.26;1753834;81;21133;-62
2021/03/23 08:05:39;;;;;;;8.97;1.33;;;;;;;1.73;43.37;99195.31;1753851;81;21368;-62
2021/03/23 08:08:33;;;;;;;3.97;1.60;;;;;;;1.84;43.35;99200.50;1753733;81;21168;-63
2021/03/23 08:11:21;;;;;;;1.30;1.10;;;;;;;1.94;43.33;99216.81;1677353;84;21058;-62
2021/03/23 08:13:58;;;;;;;8.13;2.60;;;;;;;1.93;43.25;99193.45;1697245;83;21164;-61
2021/03/23 08:17:02;;;;;;;5.77;3.53;;;;;;;2.00;43.42;99214.67;1702901;84;21153;-62
2021/03/23 08:20:21;;;;;;;4.10;2.65;;;;;;;2.03;42.48;99215.58;1703515;82;21440;-60
2021/03/23 08:23:00;;;;;;;1.10;1.00;;;;;;;2.01;42.03;99214.48;1642196;82;21181;-62
2021/03/23 08:25:50;;;;;;;4.27;1.40;;;;;;;2.02;42.07;99200.68;1732147;82;21108;-62
2021/03/23 08:28:36;;;;;;;1.50;0.97;;;;;;;2.06;42.58;99200.59;1732031;82;21174;-61
2021/03/23 08:31:55;;;;;;;2.37;1.00;;;;;;;2.16;42.46;99192.49;1704810;82;21125;-61
2021/03/23 08:35:00;;;;;;;6.23;1.43;;;;;;;2.28;42.30;99190.53;1753859;81;21207;-62
2021/03/23 08:37:41;;;;;;;2.00;1.47;;;;;;;2.38;42.13;99199.69;1705319;83;21246;-61
2021/03/23 08:40:38;;;;;;;3.30;2.00;;;;;;;2.46;41.55;99193.33;1718840;82;21164;-60
2021/03/23 08:43:05;;;;;;;3.27;1.60;;;;;;;2.47;41.66;99190.98;1718807;82;21743;-61
2021/03/23 08:45:36;;;;;;;3.43;1.70;;;;;;;2.50;42.19;99187.89;1701564;84;21208;-61
2021/03/23 08:48:26;;;;;;;1.93;1.53;;;;;;;2.59;42.27;99190.64;1720067;83;22316;-61
2021/03/23 08:51:00;;;;;;;4.60;1.70;;;;;;;2.66;41.80;99201.22;1704793;84;21152;-62
2021/03/23 08:53:34;;;;;;;2.52;1.50;;;;;;;2.74;41.19;99215.56;1719906;83;21119;-60
2021/03/23 08:56:04;;;;;;;2.52;2.02;;;;;;;2.80;41.01;99185.52;1699133;84;21351;-60
2021/03/23 08:58:48;;;;;;;2.03;1.70;;;;;;;2.73;40.71;99204.67;1689827;83;21211;-61
2021/03/23 09:01:30;;;;;;;1.63;1.10;;;;;;;2.68;40.38;99203.16;1719778;82;22201;-62
2021/03/23 09:04:16;;;;;;;3.10;1.63;;;;;;;2.60;40.26;99190.92;1710949;83;21171;-63
2021/03/23 09:06:55;;;;;;;5.00;1.37;;;;;;;2.58;40.67;99190.33;1735563;82;21175;-62
2021/03/23 09:09:36;;;;;;;2.55;1.45;;;;;;;2.58;41.01;99189.01;1705002;84;21558;-63
2021/03/23 09:12:33;;;;;;;2.37;1.45;;;;;;;2.58;41.31;99202.28;1652328;84;21165;-61
2021/03/23 09:15:21;;;;;;;2.43;1.27;;;;;;;2.58;41.27;99194.31;1870721;76;22267;-61
2021/03/23 09:18:17;;;;;;;3.58;2.20;;;;;;;2.52;41.53;99185.35;1820454;78;20962;-61
2021/03/23 09:20:52;;;;;;;3.15;1.10;;;;;;;2.47;40.54;99195.78;1820924;78;21188;-62
2021/03/23 09:23:27;;;;;;;6.00;3.15;;;;;;;2.26;41.70;99207.98;1822740;77;20983;-62
2021/03/23 09:26:03;;;;;;;1.60;1.07;;;;;;;2.15;44.25;99208.63;1820745;78;21046;-62
2021/03/23 09:28:50;;;;;;;1.10;1.00;;;;;;;2.04;44.63;99194.16;1822588;77;21622;-64
2021/03/23 09:31:23;;;;;;;1.53;1.20;;;;;;;1.86;44.79;99191.84;1820278;78;20975;-62
2021/03/23 09:33:55;;;;;;;6.30;5.30;;;;;;;1.70;44.67;99188.59;1816509;78;21393;-61
2021/03/23 09:36:44;;;;;;;6.10;2.77;;;;;;;1.73;44.41;99192.66;1820786;78;20951;-61
2021/03/23 09:39:20;;;;;;;1.73;1.40;;;;;;;1.87;43.57;99188.97;1820880;78;21040;-62
2021/03/23 09:41:56;;;;;;;3.03;2.83;;;;;;;2.04;43.14;99189.37;1819565;78;21178;-62
2021/03/23 09:44:29;;;;;;;2.75;1.75;;;;;;;2.16;41.86;99161.98;1812184;77;21153;-64
2021/03/23 09:46:58;;;;;;;;;;;;;;;2.34;41.66;99162.66;1786064;80;21436;-62
2021/03/23 09:49:31;;;;;;;2.63;1.37;;;;;;;2.45;40.66;99161.17;1745619;80;20356;-62
2021/03/23 09:52:08;;;;;;;2.72;1.32;;;;;;;2.54;40.63;99169.23;1776197;80;20999;-61
2021/03/23 09:54:48;;;;;;;5.40;1.70;;;;;;;2.55;40.73;99159.70;1837705;77;20988;-61
2021/03/23 09:57:22;;;;;;;4.10;1.82;;;;;;;2.68;41.07;99158.84;1834986;77;21093;-61
2021/03/23 09:59:56;;;;;;;5.70;2.97;;;;;;;2.81;40.99;99146.00;1816429;77;21571;-63
2021/03/23 10:02:36;;;;;;;2.25;1.12;;;;;;;2.92;41.48;99170.05;1821682;77;21217;-62
2021/03/23 10:05:30;;;;;;;4.00;2.00;;;;;;;2.94;40.92;99156.03;1820864;78;21132;-63
2021/03/23 10:08:19;;;;;;;5.35;2.42;;;;;;;2.90;40.93;99161.47;1796128;78;21142;-61
2021/03/23 10:10:47;;;;;;;5.65;2.67;;;;;;;2.87;41.10;99160.58;1831429;77;21086;-62
2021/03/23 10:13:27;;;;;;;6.58;2.33;;;;;;;2.88;41.55;99172.80;1820658;78;21437;-62
2021/03/23 10:15:56;;;;;;;2.47;1.40;;;;;;;2.90;41.53;99157.48;1820834;78;21129;-61
2021/03/23 10:18:28;;;;;;;5.28;1.70;;;;;;;2.73;40.88;99185.58;1821447;77;21532;-61
2021/03/23 10:21:03;;;;;;;10.57;3.20;;;;;;;2.50;40.89;99186.06;1820988;78;20994;-64
2021/03/23 10:23:32;;;;;;;3.20;1.60;;;;;;;2.45;41.65;99208.43;1838734;77;21152;-62
2021/03/23 10:26:03;;;;;;;2.30;1.92;;;;;;;2.35;43.97;99201.95;1820371;78;21463;-62
2021/03/23 10:28:37;;;;;;;13.20;6.37;;;;;;;2.10;46.36;99202.63;1824364;77;21007;-62
2021/03/23 10:31:10;;;;;;;5.37;3.22;;;;;;;2.01;48.01;99197.75;1824565;77;21034;-62
2021/03/23 10:33:40;;;;;;;8.00;2.12;;;;;;;1.99;48.53;99194.47;1820077;78;21121;-62
2021/03/23 10:36:13;;;;;;;10.30;3.67;;;;;;;2.01;49.76;99193.27;1831711;77;21102;-63
2021/03/23 10:38:45;;;;;;;21.12;9.00;;;;;;;2.06;49.28;99196.08;1820059;78;22284;-62
2021/03/23 10:41:25;;;;;;;8.18;3.75;;;;;;;2.17;49.28;99194.64;1820384;78;21133;-63
2021/03/23 10:44:16;;;;;;;3.90;1.70;;;;;;;2.26;50.20;99190.73;1820253;78;21026;-63
2021/03/23 10:46:44;;;;;;;4.25;3.55;;;;;;;2.32;49.87;99174.49;1798244;77;21136;-63
2021/03/23 10:49:27;;;;;;;2.50;1.30;;;;;;;2.36;49.24;99184.98;1820502;77;21113;-62
2021/03/23 10:52:06;;;;;;;1.53;1.43;;;;;;;2.38;45.82;99180.30;1820542;78;22326;-61
2021/03/23 10:54:36;;;;;;;1.50;1.40;;;;;;;2.55;46.13;99168.17;1835912;77;21126;-61
2021/03/23 10:57:32;;;;;;;1.10;0.95;;;;;;;2.70;44.00;99190.47;1839681;77;21153;-63
2021/03/23 11:00:30;;;;;;;3.50;1.15;;;;;;;2.71;42.95;99202.73;1850182;77;21448;-61
2021/03/23 11:03:23;;;;;;;3.83;2.20;;;;;;;2.61;45.21;99185.41;1853565;77;21551;-61
2021/03/23 11:05:51;;;;;;;3.20;1.62;;;;;;;2.40;47.03;99196.84;1822562;77;21419;-63
2021/03/23 11:08:19;;;;;;;3.30;1.57;;;;;;;2.46;47.84;99198.13;1820205;78;21554;-63
2021/03/23 11:10:48;;;;;;;4.87;1.83;;;;;;;2.59;48.20;99194.08;1820120;78;21184;-67
2021/03/23 11:13:17;;;;;;;3.67;1.67;;;;;;;2.71;48.18;99198.23;1826668;77;21560;-64
2021/03/23 11:15:49;;;;;;;4.78;1.40;;;;;;;2.83;46.87;99194.41;1796834;79;20983;-61
2021/03/23 11:18:30;;;;;;;5.45;1.45;;;;;;;2.79;48.80;99209.93;1823322;77;21367;-62
2021/03/23 11:21:02;;;;;;;3.67;1.20;;;;;;;2.45;52.42;99243.44;1820294;78;21054;-62
2021/03/23 11:23:41;;;;;;;6.15;1.47;;;;;;;2.01;57.01;99246.80;1821308;77;21007;-63
2021/03/23 11:26:17;;;;;;;2.77;1.67;;;;;;;1.50;65.07;99239.45;1821727;77;21138;-65
2021/03/23 11:28:46;;;;;;;4.10;1.70;;;;;;;1.25;66.14;99236.55;1837441;77;21586;-65
2021/03/23 11:31:16;;;;;;;3.00;2.70;;;;;;;1.05;68.16;99225.63;1813371;79;21336;-64
2021/03/23 11:33:46;;;;;;;4.40;2.73;;;;;;;1.11;69.08;99236.72;1827100;77;21081;-62
2021/03/23 11:36:14;;;;;;;1.63;1.40;;;;;;;1.17;69.86;99230.64;1827068;77;21015;-65
2021/03/23 11:38:41;;;;;;;2.87;1.40;;;;;;;1.23;70.26;99228.52;1822286;77;21752;-62
2021/03/23 11:41:26;;;;;;;1.47;1.30;;;;;;;1.24;71.07;99236.27;1828134;77;21130;-64
2021/03/23 11:44:24;;;;;;;2.67;1.57;;;;;;;1.25;70.17;99241.85;1840878;77;21376;-62
2021/03/23 11:47:10;;;;;;;1.40;1.30;;;;;;;1.18;69.28;99221.17;1819993;78;21041;-60
2021/03/23 11:50:12;;;;;;;3.10;1.50;;;;;;;1.13;68.90;99220.96;1820062;78;21083;-60
2021/03/23 11:52:41;;;;;;;2.10;1.50;;;;;;;1.13;69.34;99223.61;1820056;78;21007;-61
2021/03/23 11:55:12;;;;;;;1.50;1.40;;;;;;;1.07;64.75;99207.19;1837497;77;21200;-61
2021/03/23 11:57:41;;;;;;;2.00;1.43;;;;;;;1.06;63.98;99204.73;1827093;77;21354;-61
2021/03/23 12:00:10;;;;;;;2.67;2.47;;;;;;;1.11;63.89;99205.77;1815964;77;21152;-61
2021/03/23 12:02:40;;;;;;;3.40;2.77;;;;;;;1.22;63.88;99204.37;1820217;77;21029;-61
2021/03/23 12:05:10;;;;;;;3.23;2.57;;;;;;;1.30;64.42;99207.63;1821571;77;21161;-63
2021/03/23 12:08:16;;;;;;;1.67;1.47;;;;;;;1.31;64.41;99196.03;1821243;77;21607;-63
2021/03/23 12:11:21;;;;;;;2.77;2.13;;;;;;;1.47;63.79;99204.60;1819275;78;21360;-63
2021/03/23 12:14:19;;;;;;;1.73;1.37;;;;;;;1.66;63.05;99203.28;1820230;78;20995;-63
2021/03/23 12:17:02;;;;;;;3.30;1.70;;;;;;;1.83;63.06;99200.20;1827930;77;21121;-63
2021/03/23 12:19:44;;;;;;;2.47;1.73;;;;;;;2.00;62.08;99198.77;1840788;77;21097;-61
2021/03/23 12:22:12;;;;;;;1.73;1.60;;;;;;;2.04;61.12;99213.23;1853472;77;22287;-61